sensor_id;sensor_type;location;lat;lon;timestamp;P1;durP1;ratioP1;P2;durP2;ratioP2
9449;SDS011;4763;48.370;10.874;2023-02-11T06:09:39;25.83;;;14.17;;
9449;SDS011;4763;48.370;10.874;2023-02-11T06:12:06;30.57;;;16.33;;
9449;SDS011;4763;48.370;10.874;2023-02-11T06:14:32;25.97;;;15.13;;
9449;SDS011;4763;48.370;10.874;2023-02-11T06:16:59;28.23;;;15.20;;
9449;SDS011;4763;48.370;10.874;2023-02-11T06:19:26;29.00;;;15.93;;
9449;SDS011;4763;48.370;10.874;2023-02-11T06:21:54;32.93;;;15.47;;
9449;SDS011;4763;48.370;10.874;2023-02-11T06:24:21;26.20;;;14.83;;
9449;SDS011;4763;48.370;10.874;2023-02-11T06:29:39;33.17;;;15.13;;
9449;SDS011;4763;48.370;10.874;2023-02-11T06:32:18;25.47;;;15.33;;
9449;SDS011;4763;48.370;10.874;2023-02-11T06:34:47;29.53;;;15.50;;
9449;SDS011;4763;48.370;10.874;2023-02-11T06:37:16;25.10;;;13.90;;
9449;SDS011;4763;48.370;10.874;2023-02-11T06:39:43;27.57;;;15.33;;
9449;SDS011;4763;48.370;10.874;2023-02-11T06:42:34;25.03;;;14.50;;
9449;SDS011;4763;48.370;10.874;2023-02-11T06:45:15;26.47;;;15.30;;
9449;SDS011;4763;48.370;10.874;2023-02-11T06:47:50;24.43;;;14.53;;
9449;SDS011;4763;48.370;10.874;2023-02-11T06:50:17;26.63;;;14.40;;
9449;SDS011;4763;48.370;10.874;2023-02-11T06:56:20;23.60;;;14.23;;
9449;SDS011;4763;48.370;10.874;2023-02-11T07:08:56;25.20;;;14.40;;
9449;SDS011;4763;48.370;10.874;2023-02-11T07:11:23;25.40;;;13.13;;
9449;SDS011;4763;48.370;10.874;2023-02-11T07:17:35;18.73;;;12.93;;
9449;SDS011;4763;48.370;10.874;2023-02-11T07:20:05;25.57;;;13.63;;
9449;SDS011;4763;48.370;10.874;2023-02-11T07:22:33;22.23;;;13.60;;
9449;SDS011;4763;48.370;10.874;2023-02-11T07:45:52;22.47;;;13.53;;
9449;SDS011;4763;48.370;10.874;2023-02-11T07:48:28;21.67;;;12.77;;
9449;SDS011;4763;48.370;10.874;2023-02-11T07:50:56;22.00;;;13.20;;
9449;SDS011;4763;48.370;10.874;2023-02-11T07:59:28;23.20;;;12.97;;
9449;SDS011;4763;48.370;10.874;2023-02-11T08:01:56;26.33;;;12.47;;
9449;SDS011;4763;48.370;10.874;2023-02-11T08:04:23;19.47;;;11.80;;
9449;SDS011;4763;48.370;10.874;2023-02-11T08:06:51;35.97;;;13.83;;
9449;SDS011;4763;48.370;10.874;2023-02-11T08:09:20;20.97;;;11.77;;
9449;SDS011;4763;48.370;10.874;2023-02-11T08:11:46;22.33;;;12.30;;
9449;SDS011;4763;48.370;10.874;2023-02-11T08:14:13;22.60;;;12.20;;
9449;SDS011;4763;48.370;10.874;2023-02-11T08:16:40;16.90;;;11.60;;
9449;SDS011;4763;48.370;10.874;2023-02-11T08:19:09;23.07;;;11.63;;
9449;SDS011;4763;48.370;10.874;2023-02-11T08:21:38;24.00;;;12.90;;
9449;SDS011;4763;48.370;10.874;2023-02-11T08:24:05;23.00;;;14.83;;
9449;SDS011;4763;48.370;10.874;2023-02-11T08:26:33;24.33;;;12.87;;
9449;SDS011;4763;48.370;10.874;2023-02-11T08:29:02;23.20;;;12.87;;
9449;SDS011;4763;48.370;10.874;2023-02-11T08:31:32;26.57;;;15.57;;
9449;SDS011;4763;48.370;10.874;2023-02-11T08:34:00;24.83;;;13.70;;
9449;SDS011;4763;48.370;10.874;2023-02-11T08:39:00;20.27;;;12.17;;
9449;SDS011;4763;48.370;10.874;2023-02-11T08:41:29;21.63;;;11.93;;
9449;SDS011;4763;48.370;10.874;2023-02-11T08:43:56;24.03;;;13.27;;
9449;SDS011;4763;48.370;10.874;2023-02-11T08:46:23;22.43;;;13.33;;
9449;SDS011;4763;48.370;10.874;2023-02-11T08:48:50;21.03;;;11.97;;
9449;SDS011;4763;48.370;10.874;2023-02-11T08:51:17;21.93;;;12.93;;
9449;SDS011;4763;48.370;10.874;2023-02-11T08:53:48;23.63;;;12.53;;
9449;SDS011;4763;48.370;10.874;2023-02-11T09:30:00;23.17;;;14.77;;
9449;SDS011;4763;48.370;10.874;2023-02-11T09:32:26;25.00;;;12.90;;
9449;SDS011;4763;48.370;10.874;2023-02-11T09:34:53;24.30;;;11.87;;
9449;SDS011;4763;48.370;10.874;2023-02-11T09:37:20;20.97;;;11.73;;
9449;SDS011;4763;48.370;10.874;2023-02-11T09:39:47;26.43;;;12.30;;
9449;SDS011;4763;48.370;10.874;2023-02-11T09:42:26;19.80;;;12.40;;
9449;SDS011;4763;48.370;10.874;2023-02-11T09:45:09;25.53;;;13.40;;
9449;SDS011;4763;48.370;10.874;2023-02-11T09:47:44;25.23;;;14.13;;
9449;SDS011;4763;48.370;10.874;2023-02-11T09:50:14;21.50;;;12.80;;
9449;SDS011;4763;48.370;10.874;2023-02-11T09:52:44;21.77;;;11.93;;
9449;SDS011;4763;48.370;10.874;2023-02-11T09:55:16;20.80;;;11.33;;
9449;SDS011;4763;48.370;10.874;2023-02-11T09:57:46;24.07;;;11.50;;
9449;SDS011;4763;48.370;10.874;2023-02-11T10:00:19;21.97;;;12.10;;
9449;SDS011;4763;48.370;10.874;2023-02-11T10:02:55;22.97;;;12.00;;
9449;SDS011;4763;48.370;10.874;2023-02-11T10:05:40;24.10;;;12.30;;
9449;SDS011;4763;48.370;10.874;2023-02-11T10:08:22;19.67;;;11.37;;
9449;SDS011;4763;48.370;10.874;2023-02-11T10:10:59;19.03;;;10.77;;
9449;SDS011;4763;48.370;10.874;2023-02-11T10:13:35;19.10;;;11.70;;
9449;SDS011;4763;48.370;10.874;2023-02-11T10:16:16;18.00;;;10.80;;
9449;SDS011;4763;48.370;10.874;2023-02-11T10:18:57;19.97;;;12.07;;
9449;SDS011;4763;48.370;10.874;2023-02-11T10:21:39;25.40;;;12.13;;
9449;SDS011;4763;48.370;10.874;2023-02-11T10:24:15;19.70;;;11.00;;
9449;SDS011;4763;48.370;10.874;2023-02-11T10:26:44;21.90;;;12.13;;
9449;SDS011;4763;48.370;10.874;2023-02-11T10:29:13;22.70;;;12.40;;
9449;SDS011;4763;48.370;10.874;2023-02-11T10:31:51;23.00;;;12.43;;
9449;SDS011;4763;48.370;10.874;2023-02-11T10:34:19;23.77;;;13.17;;
9449;SDS011;4763;48.370;10.874;2023-02-11T10:36:45;20.87;;;11.63;;
9449;SDS011;4763;48.370;10.874;2023-02-11T10:39:13;19.13;;;11.40;;
9449;SDS011;4763;48.370;10.874;2023-02-11T10:41:42;22.40;;;12.10;;
9449;SDS011;4763;48.370;10.874;2023-02-11T10:44:21;29.40;;;16.67;;
9449;SDS011;4763;48.370;10.874;2023-02-11T10:46:52;27.87;;;14.07;;
9449;SDS011;4763;48.370;10.874;2023-02-11T10:49:32;24.33;;;13.03;;
9449;SDS011;4763;48.370;10.874;2023-02-11T10:52:11;23.57;;;12.43;;
9449;SDS011;4763;48.370;10.874;2023-02-11T10:54:40;21.17;;;12.27;;
9449;SDS011;4763;48.370;10.874;2023-02-11T10:57:11;21.63;;;11.33;;
9449;SDS011;4763;48.370;10.874;2023-02-11T10:59:44;21.47;;;11.63;;
9449;SDS011;4763;48.370;10.874;2023-02-11T11:02:20;22.73;;;12.30;;
9449;SDS011;4763;48.370;10.874;2023-02-11T11:04:48;20.43;;;12.83;;
9449;SDS011;4763;48.370;10.874;2023-02-11T11:07:22;22.30;;;12.60;;
9449;SDS011;4763;48.370;10.874;2023-02-11T11:09:52;22.67;;;13.90;;
9449;SDS011;4763;48.370;10.874;2023-02-11T11:12:26;21.43;;;11.80;;
9449;SDS011;4763;48.370;10.874;2023-02-11T11:14:56;20.57;;;12.57;;
9449;SDS011;4763;48.370;10.874;2023-02-11T11:17:25;18.33;;;11.80;;
9449;SDS011;4763;48.370;10.874;2023-02-11T11:20:08;21.63;;;12.37;;
9449;SDS011;4763;48.370;10.874;2023-02-11T11:22:41;20.53;;;12.77;;
9449;SDS011;4763;48.370;10.874;2023-02-11T11:25:19;21.80;;;12.00;;
9449;SDS011;4763;48.370;10.874;2023-02-11T11:27:50;20.20;;;11.47;;
9449;SDS011;4763;48.370;10.874;2023-02-11T11:30:20;16.33;;;10.67;;
9449;SDS011;4763;48.370;10.874;2023-02-11T11:32:51;17.07;;;10.80;;
9449;SDS011;4763;48.370;10.874;2023-02-11T11:35:23;17.87;;;10.70;;
9449;SDS011;4763;48.370;10.874;2023-02-11T11:37:52;20.57;;;11.70;;
9449;SDS011;4763;48.370;10.874;2023-02-11T11:40:21;22.33;;;12.27;;
9449;SDS011;4763;48.370;10.874;2023-02-11T11:43:05;15.10;;;9.47;;
9449;SDS011;4763;48.370;10.874;2023-02-11T11:45:52;15.77;;;8.60;;
9449;SDS011;4763;48.370;10.874;2023-02-11T11:48:22;12.80;;;8.70;;
9449;SDS011;4763;48.370;10.874;2023-02-11T11:50:53;15.63;;;9.10;;
9449;SDS011;4763;48.370;10.874;2023-02-11T11:53:24;18.40;;;10.03;;
9449;SDS011;4763;48.370;10.874;2023-02-11T11:55:59;14.53;;;8.43;;
9449;SDS011;4763;48.370;10.874;2023-02-11T11:58:29;16.87;;;9.17;;
9449;SDS011;4763;48.370;10.874;2023-02-11T12:00:58;16.13;;;9.47;;
9449;SDS011;4763;48.370;10.874;2023-02-11T12:06:42;12.53;;;7.83;;
9449;SDS011;4763;48.370;10.874;2023-02-11T12:09:20;15.27;;;9.07;;
9449;SDS011;4763;48.370;10.874;2023-02-11T12:11:58;16.47;;;10.23;;
9449;SDS011;4763;48.370;10.874;2023-02-11T12:14:41;14.17;;;8.47;;
9449;SDS011;4763;48.370;10.874;2023-02-11T12:17:13;18.47;;;11.53;;
9449;SDS011;4763;48.370;10.874;2023-02-11T12:22:48;15.40;;;8.93;;
9449;SDS011;4763;48.370;10.874;2023-02-11T12:25:24;15.27;;;9.60;;
9449;SDS011;4763;48.370;10.874;2023-02-11T12:27:59;17.90;;;9.67;;
9449;SDS011;4763;48.370;10.874;2023-02-11T12:30:37;16.17;;;9.43;;
9449;SDS011;4763;48.370;10.874;2023-02-11T12:33:15;17.13;;;9.10;;
9449;SDS011;4763;48.370;10.874;2023-02-11T12:35:54;19.13;;;11.03;;
9449;SDS011;4763;48.370;10.874;2023-02-11T12:38:29;16.10;;;10.27;;
9449;SDS011;4763;48.370;10.874;2023-02-11T12:41:08;15.70;;;9.00;;
9449;SDS011;4763;48.370;10.874;2023-02-11T12:44:05;13.30;;;8.80;;
9449;SDS011;4763;48.370;10.874;2023-02-11T12:46:35;15.33;;;9.80;;
9449;SDS011;4763;48.370;10.874;2023-02-11T12:49:13;13.40;;;8.30;;
9449;SDS011;4763;48.370;10.874;2023-02-11T12:52:03;14.13;;;8.53;;
9449;SDS011;4763;48.370;10.874;2023-02-11T12:54:52;15.90;;;8.60;;
9449;SDS011;4763;48.370;10.874;2023-02-11T12:57:23;14.90;;;7.63;;
9449;SDS011;4763;48.370;10.874;2023-02-11T12:59:54;13.47;;;8.13;;
9449;SDS011;4763;48.370;10.874;2023-02-11T13:02:28;14.83;;;8.67;;
9449;SDS011;4763;48.370;10.874;2023-02-11T13:05:00;18.37;;;8.50;;
9449;SDS011;4763;48.370;10.874;2023-02-11T13:07:33;13.27;;;8.13;;
9449;SDS011;4763;48.370;10.874;2023-02-11T13:10:19;13.33;;;8.30;;
9449;SDS011;4763;48.370;10.874;2023-02-11T13:12:50;11.63;;;7.60;;
9449;SDS011;4763;48.370;10.874;2023-02-11T13:15:36;15.40;;;7.83;;
9449;SDS011;4763;48.370;10.874;2023-02-11T13:18:09;12.50;;;7.77;;
9449;SDS011;4763;48.370;10.874;2023-02-11T13:20:42;11.57;;;7.53;;
9449;SDS011;4763;48.370;10.874;2023-02-11T13:23:21;13.47;;;8.47;;
9449;SDS011;4763;48.370;10.874;2023-02-11T13:25:58;9.97;;;6.03;;
9449;SDS011;4763;48.370;10.874;2023-02-11T13:28:37;10.63;;;6.57;;
9449;SDS011;4763;48.370;10.874;2023-02-11T13:31:08;10.13;;;6.53;;
9449;SDS011;4763;48.370;10.874;2023-02-11T13:33:38;10.97;;;7.03;;
9449;SDS011;4763;48.370;10.874;2023-02-11T13:36:22;11.13;;;7.23;;
9449;SDS011;4763;48.370;10.874;2023-02-11T13:38:55;12.43;;;6.87;;
9449;SDS011;4763;48.370;10.874;2023-02-11T13:41:33;10.30;;;6.97;;
9449;SDS011;4763;48.370;10.874;2023-02-11T13:44:12;11.83;;;7.53;;
9449;SDS011;4763;48.370;10.874;2023-02-11T13:46:51;10.10;;;6.80;;
9449;SDS011;4763;48.370;10.874;2023-02-11T13:49:22;10.90;;;7.03;;
9449;SDS011;4763;48.370;10.874;2023-02-11T13:51:52;10.93;;;7.57;;
9449;SDS011;4763;48.370;10.874;2023-02-11T13:54:30;14.43;;;7.10;;
9449;SDS011;4763;48.370;10.874;2023-02-11T14:00:00;12.27;;;7.67;;
9449;SDS011;4763;48.370;10.874;2023-02-11T14:02:30;10.23;;;6.63;;
9449;SDS011;4763;48.370;10.874;2023-02-11T14:05:27;12.17;;;7.67;;
9449;SDS011;4763;48.370;10.874;2023-02-11T14:08:17;13.37;;;6.70;;
9449;SDS011;4763;48.370;10.874;2023-02-11T14:11:04;9.53;;;6.10;;
9449;SDS011;4763;48.370;10.874;2023-02-11T14:13:37;9.53;;;6.27;;
9449;SDS011;4763;48.370;10.874;2023-02-11T14:16:28;9.60;;;5.83;;
9449;SDS011;4763;48.370;10.874;2023-02-11T14:18:58;10.80;;;7.60;;
9449;SDS011;4763;48.370;10.874;2023-02-11T14:21:31;13.47;;;8.83;;
9449;SDS011;4763;48.370;10.874;2023-02-11T14:27:09;11.70;;;7.53;;
9449;SDS011;4763;48.370;10.874;2023-02-11T14:29:50;13.23;;;7.37;;
9449;SDS011;4763;48.370;10.874;2023-02-11T14:32:32;11.70;;;8.10;;
9449;SDS011;4763;48.370;10.874;2023-02-11T14:35:06;15.13;;;8.13;;
9449;SDS011;4763;48.370;10.874;2023-02-11T14:37:40;11.97;;;7.53;;
9449;SDS011;4763;48.370;10.874;2023-02-11T14:40:16;13.00;;;8.20;;
9449;SDS011;4763;48.370;10.874;2023-02-11T14:42:50;12.43;;;8.20;;
9449;SDS011;4763;48.370;10.874;2023-02-11T14:45:21;13.57;;;7.50;;
9449;SDS011;4763;48.370;10.874;2023-02-11T14:47:50;15.67;;;8.57;;
9449;SDS011;4763;48.370;10.874;2023-02-11T14:50:23;16.80;;;9.13;;
9449;SDS011;4763;48.370;10.874;2023-02-11T14:52:51;12.33;;;7.90;;
9449;SDS011;4763;48.370;10.874;2023-02-11T14:55:24;14.30;;;7.83;;
9449;SDS011;4763;48.370;10.874;2023-02-11T14:58:10;15.03;;;7.67;;
9449;SDS011;4763;48.370;10.874;2023-02-11T15:00:54;10.53;;;7.40;;
9449;SDS011;4763;48.370;10.874;2023-02-11T15:03:23;14.33;;;8.43;;
9449;SDS011;4763;48.370;10.874;2023-02-11T15:05:53;10.97;;;7.80;;
9449;SDS011;4763;48.370;10.874;2023-02-11T15:08:21;13.60;;;7.57;;
9449;SDS011;4763;48.370;10.874;2023-02-11T15:10:48;12.27;;;7.97;;
9449;SDS011;4763;48.370;10.874;2023-02-11T15:13:16;14.07;;;8.17;;
9449;SDS011;4763;48.370;10.874;2023-02-11T15:15:46;13.50;;;8.87;;
9449;SDS011;4763;48.370;10.874;2023-02-11T15:18:18;14.90;;;8.80;;
9449;SDS011;4763;48.370;10.874;2023-02-11T15:20:48;12.50;;;8.37;;
9449;SDS011;4763;48.370;10.874;2023-02-11T15:23:17;15.90;;;9.60;;
9449;SDS011;4763;48.370;10.874;2023-02-11T15:25:48;19.27;;;11.43;;
9449;SDS011;4763;48.370;10.874;2023-02-11T15:28:20;16.73;;;12.00;;
9449;SDS011;4763;48.370;10.874;2023-02-11T15:30:55;19.97;;;10.93;;
9449;SDS011;4763;48.370;10.874;2023-02-11T15:33:24;21.27;;;13.07;;
9449;SDS011;4763;48.370;10.874;2023-02-11T15:35:54;16.17;;;9.90;;
9449;SDS011;4763;48.370;10.874;2023-02-11T15:38:21;15.80;;;9.67;;
9449;SDS011;4763;48.370;10.874;2023-02-11T15:40:52;14.33;;;9.17;;
9449;SDS011;4763;48.370;10.874;2023-02-11T15:43:21;17.47;;;10.63;;
9449;SDS011;4763;48.370;10.874;2023-02-11T15:45:52;15.90;;;9.90;;
9449;SDS011;4763;48.370;10.874;2023-02-11T15:48:30;18.63;;;11.17;;
9449;SDS011;4763;48.370;10.874;2023-02-11T15:51:03;16.87;;;10.37;;
9449;SDS011;4763;48.370;10.874;2023-02-11T15:53:35;17.10;;;10.73;;
9449;SDS011;4763;48.370;10.874;2023-02-11T15:56:08;18.97;;;11.50;;
9449;SDS011;4763;48.370;10.874;2023-02-11T15:58:40;20.30;;;11.07;;
9449;SDS011;4763;48.370;10.874;2023-02-11T16:01:08;22.87;;;12.07;;
9449;SDS011;4763;48.370;10.874;2023-02-11T16:03:37;17.87;;;11.53;;
9449;SDS011;4763;48.370;10.874;2023-02-11T16:06:15;20.20;;;10.53;;
9449;SDS011;4763;48.370;10.874;2023-02-11T16:08:54;14.13;;;7.30;;
9449;SDS011;4763;48.370;10.874;2023-02-11T16:11:23;13.13;;;7.70;;
9449;SDS011;4763;48.370;10.874;2023-02-11T16:13:53;12.90;;;8.10;;
9449;SDS011;4763;48.370;10.874;2023-02-11T16:16:20;12.37;;;7.50;;
9449;SDS011;4763;48.370;10.874;2023-02-11T16:18:51;14.33;;;8.30;;
9449;SDS011;4763;48.370;10.874;2023-02-11T16:21:20;11.73;;;7.00;;
9449;SDS011;4763;48.370;10.874;2023-02-11T16:23:54;13.83;;;7.77;;
9449;SDS011;4763;48.370;10.874;2023-02-11T16:26:23;14.60;;;8.73;;
9449;SDS011;4763;48.370;10.874;2023-02-11T16:29:00;21.00;;;12.07;;
9449;SDS011;4763;48.370;10.874;2023-02-11T16:31:33;19.40;;;11.63;;
9449;SDS011;4763;48.370;10.874;2023-02-11T16:34:04;24.00;;;12.50;;
9449;SDS011;4763;48.370;10.874;2023-02-11T16:36:41;25.27;;;12.33;;
9449;SDS011;4763;48.370;10.874;2023-02-11T16:39:08;24.40;;;9.80;;
9449;SDS011;4763;48.370;10.874;2023-02-11T16:41:35;21.10;;;11.97;;
9449;SDS011;4763;48.370;10.874;2023-02-11T16:44:03;20.50;;;12.17;;
9449;SDS011;4763;48.370;10.874;2023-02-11T16:46:30;21.30;;;12.70;;
9449;SDS011;4763;48.370;10.874;2023-02-11T16:48:59;19.67;;;12.37;;
9449;SDS011;4763;48.370;10.874;2023-02-11T16:51:36;18.10;;;11.37;;
9449;SDS011;4763;48.370;10.874;2023-02-11T16:54:05;20.87;;;11.97;;
9449;SDS011;4763;48.370;10.874;2023-02-11T16:56:32;16.80;;;10.70;;
9449;SDS011;4763;48.370;10.874;2023-02-11T16:58:58;20.10;;;10.97;;
9449;SDS011;4763;48.370;10.874;2023-02-11T17:01:25;20.33;;;10.80;;
9449;SDS011;4763;48.370;10.874;2023-02-11T17:03:52;14.50;;;8.43;;
9449;SDS011;4763;48.370;10.874;2023-02-11T17:06:20;17.03;;;10.93;;
9449;SDS011;4763;48.370;10.874;2023-02-11T17:08:47;14.23;;;9.23;;
9449;SDS011;4763;48.370;10.874;2023-02-11T17:11:17;17.03;;;10.03;;
9449;SDS011;4763;48.370;10.874;2023-02-11T17:13:44;20.47;;;10.33;;
9449;SDS011;4763;48.370;10.874;2023-02-11T17:16:15;18.73;;;10.80;;
9449;SDS011;4763;48.370;10.874;2023-02-11T17:18:43;18.07;;;11.03;;
9449;SDS011;4763;48.370;10.874;2023-02-11T17:21:10;19.80;;;10.93;;
9449;SDS011;4763;48.370;10.874;2023-02-11T17:23:39;18.17;;;10.17;;
9449;SDS011;4763;48.370;10.874;2023-02-11T17:26:06;22.00;;;12.57;;
9449;SDS011;4763;48.370;10.874;2023-02-11T17:28:33;16.63;;;10.97;;
9449;SDS011;4763;48.370;10.874;2023-02-11T17:31:00;17.13;;;10.67;;
9449;SDS011;4763;48.370;10.874;2023-02-11T17:33:31;20.10;;;10.53;;
9449;SDS011;4763;48.370;10.874;2023-02-11T17:35:58;15.20;;;9.67;;
9449;SDS011;4763;48.370;10.874;2023-02-11T17:38:24;25.03;;;12.43;;
9449;SDS011;4763;48.370;10.874;2023-02-11T17:40:59;18.83;;;11.20;;
9449;SDS011;4763;48.370;10.874;2023-02-11T17:43:27;19.80;;;11.90;;
9449;SDS011;4763;48.370;10.874;2023-02-11T17:45:54;17.10;;;11.00;;
9449;SDS011;4763;48.370;10.874;2023-02-11T17:48:21;19.20;;;11.87;;
9449;SDS011;4763;48.370;10.874;2023-02-11T17:50:48;23.90;;;12.83;;
9449;SDS011;4763;48.370;10.874;2023-02-11T17:53:15;19.93;;;12.33;;
9449;SDS011;4763;48.370;10.874;2023-02-11T17:55:42;24.03;;;11.30;;
9449;SDS011;4763;48.370;10.874;2023-02-11T17:58:10;18.37;;;10.70;;
9449;SDS011;4763;48.370;10.874;2023-02-11T18:00:37;22.33;;;12.60;;
9449;SDS011;4763;48.370;10.874;2023-02-11T18:03:04;24.67;;;14.57;;
9449;SDS011;4763;48.370;10.874;2023-02-11T18:05:34;26.07;;;15.80;;
9449;SDS011;4763;48.370;10.874;2023-02-11T18:08:02;26.83;;;14.27;;
9449;SDS011;4763;48.370;10.874;2023-02-11T18:10:29;27.07;;;16.33;;
9449;SDS011;4763;48.370;10.874;2023-02-11T18:12:57;29.63;;;16.67;;
9449;SDS011;4763;48.370;10.874;2023-02-11T18:15:26;22.30;;;14.30;;
9449;SDS011;4763;48.370;10.874;2023-02-11T18:17:53;32.70;;;16.47;;
9449;SDS011;4763;48.370;10.874;2023-02-11T18:20:20;27.67;;;15.97;;
9449;SDS011;4763;48.370;10.874;2023-02-11T18:22:47;28.77;;;16.30;;
9449;SDS011;4763;48.370;10.874;2023-02-11T18:25:14;23.93;;;14.73;;
9449;SDS011;4763;48.370;10.874;2023-02-11T18:27:42;26.20;;;16.37;;
9449;SDS011;4763;48.370;10.874;2023-02-11T18:30:12;29.10;;;14.87;;
9449;SDS011;4763;48.370;10.874;2023-02-11T18:32:42;27.00;;;16.93;;
9449;SDS011;4763;48.370;10.874;2023-02-11T18:35:09;26.20;;;15.90;;
9449;SDS011;4763;48.370;10.874;2023-02-11T18:37:38;27.13;;;16.23;;
9449;SDS011;4763;48.370;10.874;2023-02-11T18:40:06;33.60;;;17.13;;
9449;SDS011;4763;48.370;10.874;2023-02-11T18:42:34;29.90;;;18.57;;
9449;SDS011;4763;48.370;10.874;2023-02-11T18:45:03;26.03;;;16.50;;
9449;SDS011;4763;48.370;10.874;2023-02-11T18:47:31;26.93;;;15.90;;
9449;SDS011;4763;48.370;10.874;2023-02-11T18:49:59;24.30;;;14.73;;
9449;SDS011;4763;48.370;10.874;2023-02-11T18:52:25;28.17;;;16.00;;
9449;SDS011;4763;48.370;10.874;2023-02-11T18:54:52;27.33;;;14.10;;
9449;SDS011;4763;48.370;10.874;2023-02-11T18:57:19;31.97;;;15.47;;
9449;SDS011;4763;48.370;10.874;2023-02-11T18:59:47;23.93;;;14.27;;
9449;SDS011;4763;48.370;10.874;2023-02-11T19:02:14;24.50;;;13.40;;
9449;SDS011;4763;48.370;10.874;2023-02-11T19:04:41;25.40;;;13.67;;
9449;SDS011;4763;48.370;10.874;2023-02-11T19:07:10;30.93;;;15.30;;
9449;SDS011;4763;48.370;10.874;2023-02-11T19:09:36;30.23;;;17.27;;
9449;SDS011;4763;48.370;10.874;2023-02-11T19:12:03;32.33;;;19.20;;
9449;SDS011;4763;48.370;10.874;2023-02-11T19:14:32;37.43;;;19.43;;
9449;SDS011;4763;48.370;10.874;2023-02-11T19:16:59;30.93;;;19.03;;
9449;SDS011;4763;48.370;10.874;2023-02-11T19:19:29;33.93;;;20.07;;
9449;SDS011;4763;48.370;10.874;2023-02-11T19:21:57;32.83;;;19.63;;
9449;SDS011;4763;48.370;10.874;2023-02-11T19:24:27;28.77;;;17.93;;
9449;SDS011;4763;48.370;10.874;2023-02-11T19:26:55;29.50;;;18.07;;
9449;SDS011;4763;48.370;10.874;2023-02-11T19:29:24;29.57;;;18.10;;
9449;SDS011;4763;48.370;10.874;2023-02-11T19:31:51;26.20;;;15.67;;
9449;SDS011;4763;48.370;10.874;2023-02-11T19:34:18;27.17;;;17.67;;
9449;SDS011;4763;48.370;10.874;2023-02-11T19:36:46;25.57;;;16.63;;
9449;SDS011;4763;48.370;10.874;2023-02-11T19:39:13;26.73;;;15.77;;
9449;SDS011;4763;48.370;10.874;2023-02-11T19:41:42;34.93;;;16.77;;
9449;SDS011;4763;48.370;10.874;2023-02-11T19:44:08;28.70;;;18.07;;
9449;SDS011;4763;48.370;10.874;2023-02-11T19:46:36;25.17;;;15.53;;
9449;SDS011;4763;48.370;10.874;2023-02-11T19:49:04;28.07;;;16.90;;
9449;SDS011;4763;48.370;10.874;2023-02-11T19:51:32;30.30;;;17.33;;
9449;SDS011;4763;48.370;10.874;2023-02-11T19:54:00;27.80;;;16.90;;
9449;SDS011;4763;48.370;10.874;2023-02-11T19:56:27;29.23;;;17.13;;
9449;SDS011;4763;48.370;10.874;2023-02-11T19:59:00;26.00;;;15.83;;
9449;SDS011;4763;48.370;10.874;2023-02-11T20:01:28;25.60;;;15.93;;
9449;SDS011;4763;48.370;10.874;2023-02-11T20:03:55;30.43;;;18.67;;
9449;SDS011;4763;48.370;10.874;2023-02-11T20:06:23;36.47;;;19.67;;
9449;SDS011;4763;48.370;10.874;2023-02-11T20:08:52;27.40;;;15.07;;
9449;SDS011;4763;48.370;10.874;2023-02-11T20:11:19;26.20;;;15.67;;
9449;SDS011;4763;48.370;10.874;2023-02-11T20:13:46;31.90;;;18.83;;
9449;SDS011;4763;48.370;10.874;2023-02-11T20:16:15;38.77;;;20.70;;
9449;SDS011;4763;48.370;10.874;2023-02-11T20:18:44;38.40;;;21.40;;
9449;SDS011;4763;48.370;10.874;2023-02-11T20:21:12;33.67;;;18.77;;
9449;SDS011;4763;48.370;10.874;2023-02-11T20:23:41;34.37;;;19.53;;
9449;SDS011;4763;48.370;10.874;2023-02-11T20:26:11;27.07;;;16.03;;
9449;SDS011;4763;48.370;10.874;2023-02-11T20:28:39;27.73;;;16.60;;
9449;SDS011;4763;48.370;10.874;2023-02-11T20:31:06;25.73;;;15.27;;
9449;SDS011;4763;48.370;10.874;2023-02-11T20:33:36;27.53;;;15.07;;
9449;SDS011;4763;48.370;10.874;2023-02-11T20:36:04;22.93;;;14.70;;
9449;SDS011;4763;48.370;10.874;2023-02-11T20:38:32;27.00;;;15.53;;
9449;SDS011;4763;48.370;10.874;2023-02-11T20:41:03;26.93;;;15.50;;
9449;SDS011;4763;48.370;10.874;2023-02-11T20:43:31;25.20;;;15.43;;
9449;SDS011;4763;48.370;10.874;2023-02-11T20:46:00;25.03;;;14.80;;
9449;SDS011;4763;48.370;10.874;2023-02-11T20:48:27;28.00;;;15.70;;
9449;SDS011;4763;48.370;10.874;2023-02-11T20:50:55;24.37;;;15.00;;
9449;SDS011;4763;48.370;10.874;2023-02-11T20:53:27;26.53;;;15.73;;
9449;SDS011;4763;48.370;10.874;2023-02-11T20:55:54;23.13;;;14.53;;
9449;SDS011;4763;48.370;10.874;2023-02-11T20:58:20;26.87;;;15.40;;
9449;SDS011;4763;48.370;10.874;2023-02-11T21:00:47;25.63;;;15.43;;
9449;SDS011;4763;48.370;10.874;2023-02-11T21:03:14;29.37;;;15.50;;
9449;SDS011;4763;48.370;10.874;2023-02-11T21:05:41;25.47;;;16.13;;
9449;SDS011;4763;48.370;10.874;2023-02-11T21:08:09;25.87;;;15.20;;
9449;SDS011;4763;48.370;10.874;2023-02-11T21:10:35;23.10;;;14.57;;
9449;SDS011;4763;48.370;10.874;2023-02-11T21:13:02;24.83;;;14.90;;
9449;SDS011;4763;48.370;10.874;2023-02-11T21:15:29;24.47;;;15.03;;
9449;SDS011;4763;48.370;10.874;2023-02-11T21:17:56;29.47;;;17.10;;
9449;SDS011;4763;48.370;10.874;2023-02-11T21:20:22;26.73;;;15.47;;
9449;SDS011;4763;48.370;10.874;2023-02-11T21:22:49;23.70;;;14.43;;
9449;SDS011;4763;48.370;10.874;2023-02-11T21:25:17;25.60;;;14.73;;
9449;SDS011;4763;48.370;10.874;2023-02-11T21:27:46;23.93;;;12.90;;
9449;SDS011;4763;48.370;10.874;2023-02-11T21:30:13;26.73;;;14.10;;
9449;SDS011;4763;48.370;10.874;2023-02-11T21:32:40;25.70;;;14.53;;
9449;SDS011;4763;48.370;10.874;2023-02-11T21:35:06;26.40;;;15.03;;
9449;SDS011;4763;48.370;10.874;2023-02-11T21:37:33;22.23;;;14.33;;
9449;SDS011;4763;48.370;10.874;2023-02-11T21:40:00;24.73;;;13.70;;
9449;SDS011;4763;48.370;10.874;2023-02-11T21:42:28;23.93;;;13.23;;
9449;SDS011;4763;48.370;10.874;2023-02-11T21:44:55;22.33;;;13.20;;
9449;SDS011;4763;48.370;10.874;2023-02-11T21:47:21;23.57;;;13.73;;
9449;SDS011;4763;48.370;10.874;2023-02-11T21:49:48;20.00;;;13.30;;
9449;SDS011;4763;48.370;10.874;2023-02-11T21:52:15;20.40;;;12.70;;
9449;SDS011;4763;48.370;10.874;2023-02-11T21:54:42;21.47;;;13.80;;
9449;SDS011;4763;48.370;10.874;2023-02-11T21:57:08;23.57;;;13.23;;
9449;SDS011;4763;48.370;10.874;2023-02-11T21:59:36;24.70;;;13.67;;
9449;SDS011;4763;48.370;10.874;2023-02-11T22:02:03;20.80;;;13.40;;
9449;SDS011;4763;48.370;10.874;2023-02-11T22:04:30;24.27;;;13.30;;
9449;SDS011;4763;48.370;10.874;2023-02-11T22:06:58;21.83;;;14.30;;
9449;SDS011;4763;48.370;10.874;2023-02-11T22:09:24;20.70;;;14.27;;
9449;SDS011;4763;48.370;10.874;2023-02-11T22:11:51;25.23;;;14.43;;
9449;SDS011;4763;48.370;10.874;2023-02-11T22:14:18;24.10;;;13.40;;
9449;SDS011;4763;48.370;10.874;2023-02-11T22:16:46;24.43;;;14.00;;
9449;SDS011;4763;48.370;10.874;2023-02-11T22:19:13;22.83;;;13.93;;
9449;SDS011;4763;48.370;10.874;2023-02-11T22:21:40;21.47;;;13.90;;
9449;SDS011;4763;48.370;10.874;2023-02-11T22:24:07;24.60;;;13.50;;
9449;SDS011;4763;48.370;10.874;2023-02-11T22:26:34;21.13;;;14.10;;
9449;SDS011;4763;48.370;10.874;2023-02-11T22:29:01;22.80;;;14.17;;
9449;SDS011;4763;48.370;10.874;2023-02-11T22:31:29;23.63;;;13.90;;
9449;SDS011;4763;48.370;10.874;2023-02-11T22:33:58;24.03;;;14.13;;
9449;SDS011;4763;48.370;10.874;2023-02-11T22:36:27;24.37;;;13.97;;
9449;SDS011;4763;48.370;10.874;2023-02-11T22:38:55;26.90;;;15.93;;
9449;SDS011;4763;48.370;10.874;2023-02-11T22:41:24;24.83;;;14.73;;
9449;SDS011;4763;48.370;10.874;2023-02-11T22:43:51;26.83;;;15.40;;